sensor_id;sensor_type;location;lat;lon;timestamp;P1;durP1;ratioP1;P2;durP2;ratioP2
17259;SDS011;8746;49.230;9.220;2023-06-24T00:00:59;4.83;;;4.43;;
17259;SDS011;8746;49.230;9.220;2023-06-24T00:03:24;5.23;;;4.77;;
17259;SDS011;8746;49.230;9.220;2023-06-24T00:05:50;4.90;;;4.50;;
17259;SDS011;8746;49.230;9.220;2023-06-24T00:08:15;5.10;;;4.60;;
17259;SDS011;8746;49.230;9.220;2023-06-24T00:10:44;5.30;;;4.80;;
17259;SDS011;8746;49.230;9.220;2023-06-24T00:13:11;5.37;;;4.80;;
17259;SDS011;8746;49.230;9.220;2023-06-24T00:15:36;5.93;;;5.33;;
17259;SDS011;8746;49.230;9.220;2023-06-24T00:18:01;6.23;;;4.87;;
17259;SDS011;8746;49.230;9.220;2023-06-24T00:20:30;5.93;;;5.27;;
17259;SDS011;8746;49.230;9.220;2023-06-24T00:22:55;6.90;;;4.80;;
17259;SDS011;8746;49.230;9.220;2023-06-24T00:25:21;5.27;;;4.77;;
17259;SDS011;8746;49.230;9.220;2023-06-24T00:27:46;5.10;;;4.60;;
17259;SDS011;8746;49.230;9.220;2023-06-24T00:30:12;5.40;;;4.90;;
17259;SDS011;8746;49.230;9.220;2023-06-24T00:32:37;5.57;;;4.73;;
17259;SDS011;8746;49.230;9.220;2023-06-24T00:35:03;5.17;;;4.67;;
17259;SDS011;8746;49.230;9.220;2023-06-24T00:37:28;5.07;;;4.67;;
17259;SDS011;8746;49.230;9.220;2023-06-24T00:39:54;4.90;;;4.40;;
17259;SDS011;8746;49.230;9.220;2023-06-24T00:42:19;5.77;;;4.70;;
17259;SDS011;8746;49.230;9.220;2023-06-24T00:44:44;5.70;;;5.13;;
17259;SDS011;8746;49.230;9.220;2023-06-24T00:47:10;5.30;;;4.80;;
17259;SDS011;8746;49.230;9.220;2023-06-24T00:49:36;5.63;;;5.13;;
17259;SDS011;8746;49.230;9.220;2023-06-24T00:52:01;6.10;;;5.17;;
17259;SDS011;8746;49.230;9.220;2023-06-24T00:54:27;5.10;;;4.70;;
17259;SDS011;8746;49.230;9.220;2023-06-24T00:56:56;5.67;;;4.90;;
17259;SDS011;8746;49.230;9.220;2023-06-24T00:59:25;5.70;;;5.10;;
17259;SDS011;8746;49.230;9.220;2023-06-24T01:01:54;5.50;;;5.00;;
17259;SDS011;8746;49.230;9.220;2023-06-24T01:04:20;5.37;;;4.93;;
17259;SDS011;8746;49.230;9.220;2023-06-24T01:06:45;5.50;;;5.00;;
17259;SDS011;8746;49.230;9.220;2023-06-24T01:09:11;6.00;;;5.20;;
17259;SDS011;8746;49.230;9.220;2023-06-24T01:11:38;5.33;;;4.77;;
17259;SDS011;8746;49.230;9.220;2023-06-24T01:14:04;6.20;;;4.93;;
17259;SDS011;8746;49.230;9.220;2023-06-24T01:16:33;5.70;;;5.07;;
17259;SDS011;8746;49.230;9.220;2023-06-24T01:22:14;6.50;;;5.90;;
17259;SDS011;8746;49.230;9.220;2023-06-24T01:27:52;5.50;;;5.00;;
17259;SDS011;8746;49.230;9.220;2023-06-24T01:33:22;6.43;;;5.00;;
17259;SDS011;8746;49.230;9.220;2023-06-24T01:35:55;5.50;;;5.00;;
17259;SDS011;8746;49.230;9.220;2023-06-24T01:39:07;6.00;;;5.40;;
17259;SDS011;8746;49.230;9.220;2023-06-24T01:41:13;5.47;;;4.60;;
17259;SDS011;8746;49.230;9.220;2023-06-24T01:43:43;6.40;;;5.07;;
17259;SDS011;8746;49.230;9.220;2023-06-24T01:46:10;5.53;;;5.03;;
17259;SDS011;8746;49.230;9.220;2023-06-24T01:48:38;5.90;;;4.97;;
17259;SDS011;8746;49.230;9.220;2023-06-24T01:51:09;6.40;;;5.47;;
17259;SDS011;8746;49.230;9.220;2023-06-24T01:53:37;5.50;;;5.00;;
17259;SDS011;8746;49.230;9.220;2023-06-24T01:56:07;5.50;;;5.00;;
17259;SDS011;8746;49.230;9.220;2023-06-24T01:58:37;5.90;;;5.40;;
17259;SDS011;8746;49.230;9.220;2023-06-24T02:01:05;5.40;;;4.90;;
17259;SDS011;8746;49.230;9.220;2023-06-24T02:03:32;5.33;;;4.67;;
17259;SDS011;8746;49.230;9.220;2023-06-24T02:05:59;5.90;;;5.30;;
17259;SDS011;8746;49.230;9.220;2023-06-24T02:08:26;5.83;;;5.33;;
17259;SDS011;8746;49.230;9.220;2023-06-24T02:10:55;5.20;;;4.80;;
17259;SDS011;8746;49.230;9.220;2023-06-24T02:13:23;5.53;;;5.03;;
17259;SDS011;8746;49.230;9.220;2023-06-24T02:15:49;4.80;;;4.40;;
17259;SDS011;8746;49.230;9.220;2023-06-24T02:18:16;6.67;;;5.17;;
17259;SDS011;8746;49.230;9.220;2023-06-24T02:20:43;5.67;;;4.97;;
17259;SDS011;8746;49.230;9.220;2023-06-24T02:23:09;5.60;;;5.00;;
17259;SDS011;8746;49.230;9.220;2023-06-24T02:25:37;5.80;;;5.27;;
17259;SDS011;8746;49.230;9.220;2023-06-24T02:28:04;5.83;;;5.30;;
17259;SDS011;8746;49.230;9.220;2023-06-24T02:30:31;5.13;;;4.73;;
17259;SDS011;8746;49.230;9.220;2023-06-24T02:32:59;7.33;;;5.17;;
17259;SDS011;8746;49.230;9.220;2023-06-24T02:35:24;6.00;;;5.40;;
17259;SDS011;8746;49.230;9.220;2023-06-24T02:37:49;6.37;;;5.73;;
17259;SDS011;8746;49.230;9.220;2023-06-24T02:40:15;7.17;;;5.37;;
17259;SDS011;8746;49.230;9.220;2023-06-24T02:42:40;5.73;;;5.20;;
17259;SDS011;8746;49.230;9.220;2023-06-24T02:45:06;5.33;;;4.83;;
17259;SDS011;8746;49.230;9.220;2023-06-24T02:47:32;5.83;;;5.27;;
17259;SDS011;8746;49.230;9.220;2023-06-24T02:49:59;6.33;;;4.80;;
17259;SDS011;8746;49.230;9.220;2023-06-24T02:52:25;5.57;;;5.07;;
17259;SDS011;8746;49.230;9.220;2023-06-24T02:54:53;5.70;;;4.97;;
17259;SDS011;8746;49.230;9.220;2023-06-24T02:57:23;5.70;;;5.17;;
17259;SDS011;8746;49.230;9.220;2023-06-24T02:59:50;5.63;;;5.00;;
17259;SDS011;8746;49.230;9.220;2023-06-24T03:02:15;6.23;;;4.97;;
17259;SDS011;8746;49.230;9.220;2023-06-24T03:04:41;5.63;;;5.13;;
17259;SDS011;8746;49.230;9.220;2023-06-24T03:07:07;6.10;;;5.23;;
17259;SDS011;8746;49.230;9.220;2023-06-24T03:09:35;5.13;;;4.73;;
17259;SDS011;8746;49.230;9.220;2023-06-24T03:12:00;6.87;;;5.33;;
17259;SDS011;8746;49.230;9.220;2023-06-24T03:14:26;5.83;;;5.20;;
17259;SDS011;8746;49.230;9.220;2023-06-24T03:16:51;6.30;;;4.97;;
17259;SDS011;8746;49.230;9.220;2023-06-24T03:19:16;5.53;;;5.10;;
17259;SDS011;8746;49.230;9.220;2023-06-24T03:21:42;5.53;;;5.03;;
17259;SDS011;8746;49.230;9.220;2023-06-24T03:24:07;7.73;;;5.20;;
17259;SDS011;8746;49.230;9.220;2023-06-24T03:26:36;8.53;;;5.50;;
17259;SDS011;8746;49.230;9.220;2023-06-24T03:29:02;5.20;;;4.80;;
17259;SDS011;8746;49.230;9.220;2023-06-24T03:31:28;6.47;;;5.70;;
17259;SDS011;8746;49.230;9.220;2023-06-24T03:33:54;6.40;;;5.70;;
17259;SDS011;8746;49.230;9.220;2023-06-24T03:36:19;6.60;;;5.70;;
17259;SDS011;8746;49.230;9.220;2023-06-24T03:38:45;11.20;;;5.23;;
17259;SDS011;8746;49.230;9.220;2023-06-24T03:41:10;7.33;;;5.43;;
17259;SDS011;8746;49.230;9.220;2023-06-24T03:43:36;5.20;;;4.77;;
17259;SDS011;8746;49.230;9.220;2023-06-24T03:46:01;7.63;;;4.80;;
17259;SDS011;8746;49.230;9.220;2023-06-24T03:48:27;6.97;;;4.97;;
17259;SDS011;8746;49.230;9.220;2023-06-24T03:50:52;6.93;;;4.83;;
17259;SDS011;8746;49.230;9.220;2023-06-24T03:53:18;5.70;;;4.93;;
17259;SDS011;8746;49.230;9.220;2023-06-24T03:55:43;6.90;;;5.30;;
17259;SDS011;8746;49.230;9.220;2023-06-24T03:58:08;8.13;;;5.73;;
17259;SDS011;8746;49.230;9.220;2023-06-24T04:00:34;5.77;;;5.23;;
17259;SDS011;8746;49.230;9.220;2023-06-24T04:03:01;8.13;;;4.73;;
17259;SDS011;8746;49.230;9.220;2023-06-24T04:05:26;5.37;;;4.70;;
17259;SDS011;8746;49.230;9.220;2023-06-24T04:07:52;5.63;;;5.03;;
17259;SDS011;8746;49.230;9.220;2023-06-24T04:10:18;7.93;;;4.90;;
17259;SDS011;8746;49.230;9.220;2023-06-24T04:12:44;8.50;;;5.33;;
17259;SDS011;8746;49.230;9.220;2023-06-24T04:15:12;5.67;;;5.10;;
17259;SDS011;8746;49.230;9.220;2023-06-24T04:17:38;8.03;;;5.70;;
17259;SDS011;8746;49.230;9.220;2023-06-24T04:20:03;5.60;;;5.00;;
17259;SDS011;8746;49.230;9.220;2023-06-24T04:22:33;6.63;;;5.50;;
17259;SDS011;8746;49.230;9.220;2023-06-24T04:24:58;8.90;;;5.30;;
17259;SDS011;8746;49.230;9.220;2023-06-24T04:27:23;5.67;;;4.90;;
17259;SDS011;8746;49.230;9.220;2023-06-24T04:29:49;5.93;;;5.37;;
17259;SDS011;8746;49.230;9.220;2023-06-24T04:32:14;6.43;;;5.67;;
17259;SDS011;8746;49.230;9.220;2023-06-24T04:34:39;5.97;;;4.70;;
17259;SDS011;8746;49.230;9.220;2023-06-24T04:37:05;6.20;;;5.50;;
17259;SDS011;8746;49.230;9.220;2023-06-24T04:39:30;6.77;;;5.30;;
17259;SDS011;8746;49.230;9.220;2023-06-24T04:41:56;6.83;;;5.33;;
17259;SDS011;8746;49.230;9.220;2023-06-24T04:44:21;6.17;;;5.53;;
17259;SDS011;8746;49.230;9.220;2023-06-24T04:46:46;7.13;;;5.07;;
17259;SDS011;8746;49.230;9.220;2023-06-24T04:49:12;5.50;;;4.97;;
17259;SDS011;8746;49.230;9.220;2023-06-24T04:51:37;6.17;;;5.60;;
17259;SDS011;8746;49.230;9.220;2023-06-24T04:54:03;7.07;;;5.67;;
17259;SDS011;8746;49.230;9.220;2023-06-24T04:56:29;6.10;;;5.60;;
17259;SDS011;8746;49.230;9.220;2023-06-24T04:58:55;7.03;;;6.03;;
17259;SDS011;8746;49.230;9.220;2023-06-24T05:01:20;6.23;;;5.63;;
17259;SDS011;8746;49.230;9.220;2023-06-24T05:03:46;6.37;;;5.77;;
17259;SDS011;8746;49.230;9.220;2023-06-24T05:06:12;7.10;;;5.83;;
17259;SDS011;8746;49.230;9.220;2023-06-24T05:08:37;7.60;;;6.27;;
17259;SDS011;8746;49.230;9.220;2023-06-24T05:11:03;7.63;;;6.00;;
17259;SDS011;8746;49.230;9.220;2023-06-24T05:13:28;6.63;;;5.50;;
17259;SDS011;8746;49.230;9.220;2023-06-24T05:15:54;5.97;;;5.37;;
17259;SDS011;8746;49.230;9.220;2023-06-24T05:18:19;6.33;;;5.73;;
17259;SDS011;8746;49.230;9.220;2023-06-24T05:20:44;5.60;;;5.10;;
17259;SDS011;8746;49.230;9.220;2023-06-24T05:23:10;6.07;;;5.47;;
17259;SDS011;8746;49.230;9.220;2023-06-24T05:25:35;7.67;;;5.40;;
17259;SDS011;8746;49.230;9.220;2023-06-24T05:28:00;6.60;;;5.30;;
17259;SDS011;8746;49.230;9.220;2023-06-24T05:30:26;5.97;;;5.37;;
17259;SDS011;8746;49.230;9.220;2023-06-24T05:32:51;6.70;;;5.30;;
17259;SDS011;8746;49.230;9.220;2023-06-24T05:35:16;7.13;;;5.83;;
17259;SDS011;8746;49.230;9.220;2023-06-24T05:37:42;6.60;;;5.70;;
17259;SDS011;8746;49.230;9.220;2023-06-24T05:40:07;5.93;;;5.40;;
17259;SDS011;8746;49.230;9.220;2023-06-24T05:42:34;6.07;;;5.47;;
17259;SDS011;8746;49.230;9.220;2023-06-24T05:44:59;7.33;;;5.63;;
17259;SDS011;8746;49.230;9.220;2023-06-24T05:47:25;5.93;;;5.37;;
17259;SDS011;8746;49.230;9.220;2023-06-24T05:49:50;6.67;;;5.60;;
17259;SDS011;8746;49.230;9.220;2023-06-24T05:52:15;8.50;;;5.40;;
17259;SDS011;8746;49.230;9.220;2023-06-24T05:54:41;6.93;;;5.20;;
17259;SDS011;8746;49.230;9.220;2023-06-24T05:57:06;6.50;;;5.00;;
17259;SDS011;8746;49.230;9.220;2023-06-24T05:59:32;6.83;;;6.00;;
17259;SDS011;8746;49.230;9.220;2023-06-24T06:01:58;5.40;;;4.90;;
17259;SDS011;8746;49.230;9.220;2023-06-24T06:04:23;5.90;;;5.13;;
17259;SDS011;8746;49.230;9.220;2023-06-24T06:06:48;6.27;;;5.27;;
17259;SDS011;8746;49.230;9.220;2023-06-24T06:09:14;5.43;;;4.93;;
17259;SDS011;8746;49.230;9.220;2023-06-24T06:11:39;6.37;;;5.30;;
17259;SDS011;8746;49.230;9.220;2023-06-24T06:14:04;5.10;;;4.60;;
17259;SDS011;8746;49.230;9.220;2023-06-24T06:16:30;5.63;;;4.67;;
17259;SDS011;8746;49.230;9.220;2023-06-24T06:18:55;6.80;;;4.60;;
17259;SDS011;8746;49.230;9.220;2023-06-24T06:21:21;5.57;;;4.77;;
17259;SDS011;8746;49.230;9.220;2023-06-24T06:23:46;4.97;;;4.57;;
17259;SDS011;8746;49.230;9.220;2023-06-24T06:26:12;5.47;;;4.93;;
17259;SDS011;8746;49.230;9.220;2023-06-24T06:28:37;5.90;;;5.00;;
17259;SDS011;8746;49.230;9.220;2023-06-24T06:31:02;5.10;;;4.40;;
17259;SDS011;8746;49.230;9.220;2023-06-24T06:33:28;4.60;;;4.07;;
17259;SDS011;8746;49.230;9.220;2023-06-24T06:35:53;5.07;;;4.57;;
17259;SDS011;8746;49.230;9.220;2023-06-24T06:38:18;4.47;;;4.13;;
17259;SDS011;8746;49.230;9.220;2023-06-24T06:40:44;4.77;;;3.77;;
17259;SDS011;8746;49.230;9.220;2023-06-24T06:43:09;4.43;;;4.00;;
17259;SDS011;8746;49.230;9.220;2023-06-24T06:45:34;5.47;;;4.97;;
17259;SDS011;8746;49.230;9.220;2023-06-24T06:48:00;5.77;;;4.47;;
17259;SDS011;8746;49.230;9.220;2023-06-24T06:50:25;4.75;;;4.35;;
17259;SDS011;8746;49.230;9.220;2023-06-24T06:52:50;6.28;;;4.35;;
17259;SDS011;8746;49.230;9.220;2023-06-24T06:55:18;4.53;;;4.13;;
17259;SDS011;8746;49.230;9.220;2023-06-24T06:57:43;7.07;;;4.57;;
17259;SDS011;8746;49.230;9.220;2023-06-24T07:00:09;6.70;;;4.90;;
17259;SDS011;8746;49.230;9.220;2023-06-24T07:02:34;8.40;;;5.23;;
17259;SDS011;8746;49.230;9.220;2023-06-24T07:05:00;6.07;;;5.10;;
17259;SDS011;8746;49.230;9.220;2023-06-24T07:07:26;6.53;;;4.97;;
17259;SDS011;8746;49.230;9.220;2023-06-24T07:09:51;6.53;;;4.72;;
17259;SDS011;8746;49.230;9.220;2023-06-24T07:12:17;5.75;;;5.07;;
17259;SDS011;8746;49.230;9.220;2023-06-24T07:14:43;5.55;;;4.65;;
17259;SDS011;8746;49.230;9.220;2023-06-24T07:17:08;4.97;;;4.47;;
17259;SDS011;8746;49.230;9.220;2023-06-24T07:19:33;6.50;;;4.40;;
17259;SDS011;8746;49.230;9.220;2023-06-24T07:21:59;5.15;;;4.65;;
17259;SDS011;8746;49.230;9.220;2023-06-24T07:24:24;4.95;;;4.45;;
17259;SDS011;8746;49.230;9.220;2023-06-24T07:26:50;5.82;;;4.40;;
17259;SDS011;8746;49.230;9.220;2023-06-24T07:29:15;5.28;;;4.78;;
17259;SDS011;8746;49.230;9.220;2023-06-24T07:31:40;5.15;;;4.68;;
17259;SDS011;8746;49.230;9.220;2023-06-24T07:34:06;4.97;;;4.50;;
17259;SDS011;8746;49.230;9.220;2023-06-24T07:36:31;4.68;;;4.18;;
17259;SDS011;8746;49.230;9.220;2023-06-24T07:38:56;4.80;;;4.38;;
17259;SDS011;8746;49.230;9.220;2023-06-24T07:41:22;4.97;;;4.57;;
17259;SDS011;8746;49.230;9.220;2023-06-24T07:43:47;6.03;;;4.53;;
17259;SDS011;8746;49.230;9.220;2023-06-24T07:46:12;5.47;;;4.00;;
17259;SDS011;8746;49.230;9.220;2023-06-24T07:48:38;4.70;;;4.03;;
17259;SDS011;8746;49.230;9.220;2023-06-24T07:51:03;4.78;;;4.28;;
17259;SDS011;8746;49.230;9.220;2023-06-24T07:53:28;4.68;;;4.28;;
17259;SDS011;8746;49.230;9.220;2023-06-24T07:55:54;4.45;;;4.05;;
17259;SDS011;8746;49.230;9.220;2023-06-24T07:58:19;10.07;;;6.15;;
17259;SDS011;8746;49.230;9.220;2023-06-24T08:00:45;5.65;;;4.53;;
17259;SDS011;8746;49.230;9.220;2023-06-24T08:03:11;5.85;;;3.97;;
17259;SDS011;8746;49.230;9.220;2023-06-24T08:05:37;4.70;;;4.03;;
17259;SDS011;8746;49.230;9.220;2023-06-24T08:08:04;4.53;;;4.05;;
17259;SDS011;8746;49.230;9.220;2023-06-24T08:10:30;4.30;;;3.90;;
17259;SDS011;8746;49.230;9.220;2023-06-24T08:12:55;4.22;;;3.83;;
17259;SDS011;8746;49.230;9.220;2023-06-24T08:15:20;7.03;;;3.65;;
17259;SDS011;8746;49.230;9.220;2023-06-24T08:17:50;4.88;;;4.00;;
17259;SDS011;8746;49.230;9.220;2023-06-24T08:20:19;3.97;;;3.67;;
17259;SDS011;8746;49.230;9.220;2023-06-24T08:22:45;4.50;;;4.10;;
17259;SDS011;8746;49.230;9.220;2023-06-24T08:25:11;4.00;;;3.60;;
17259;SDS011;8746;49.230;9.220;2023-06-24T08:27:36;4.20;;;3.80;;
17259;SDS011;8746;49.230;9.220;2023-06-24T08:30:03;3.42;;;3.13;;
17259;SDS011;8746;49.230;9.220;2023-06-24T08:32:30;4.20;;;3.88;;
17259;SDS011;8746;49.230;9.220;2023-06-24T08:34:55;3.83;;;3.53;;
17259;SDS011;8746;49.230;9.220;2023-06-24T08:37:20;3.72;;;3.42;;
17259;SDS011;8746;49.230;9.220;2023-06-24T08:39:46;3.55;;;3.25;;
17259;SDS011;8746;49.230;9.220;2023-06-24T08:42:11;3.70;;;3.30;;
17259;SDS011;8746;49.230;9.220;2023-06-24T08:44:36;4.53;;;3.35;;
17259;SDS011;8746;49.230;9.220;2023-06-24T08:47:02;3.60;;;3.30;;
17259;SDS011;8746;49.230;9.220;2023-06-24T08:49:28;3.50;;;3.20;;
17259;SDS011;8746;49.230;9.220;2023-06-24T08:52:07;3.70;;;3.40;;
17259;SDS011;8746;49.230;9.220;2023-06-24T08:54:37;3.55;;;3.28;;
17259;SDS011;8746;49.230;9.220;2023-06-24T08:57:04;3.40;;;3.10;;
17259;SDS011;8746;49.230;9.220;2023-06-24T08:59:36;3.50;;;3.22;;
17259;SDS011;8746;49.230;9.220;2023-06-24T09:02:02;3.75;;;3.45;;
17259;SDS011;8746;49.230;9.220;2023-06-24T09:04:28;4.13;;;3.08;;
17259;SDS011;8746;49.230;9.220;2023-06-24T09:06:53;3.35;;;3.05;;
17259;SDS011;8746;49.230;9.220;2023-06-24T09:09:19;4.45;;;3.60;;
17259;SDS011;8746;49.230;9.220;2023-06-24T09:11:55;3.63;;;3.20;;
17259;SDS011;8746;49.230;9.220;2023-06-24T09:14:25;3.38;;;2.65;;
17259;SDS011;8746;49.230;9.220;2023-06-24T09:16:56;3.67;;;2.90;;
17259;SDS011;8746;49.230;9.220;2023-06-24T09:19:28;3.30;;;3.00;;
17259;SDS011;8746;49.230;9.220;2023-06-24T09:21:54;3.17;;;2.63;;
17259;SDS011;8746;49.230;9.220;2023-06-24T09:24:30;2.92;;;2.35;;
17259;SDS011;8746;49.230;9.220;2023-06-24T09:26:56;3.17;;;2.75;;
17259;SDS011;8746;49.230;9.220;2023-06-24T09:29:28;3.10;;;2.88;;
17259;SDS011;8746;49.230;9.220;2023-06-24T09:31:56;3.25;;;3.00;;
17259;SDS011;8746;49.230;9.220;2023-06-24T09:34:23;3.38;;;3.08;;
17259;SDS011;8746;49.230;9.220;2023-06-24T09:36:52;3.78;;;3.45;;
17259;SDS011;8746;49.230;9.220;2023-06-24T09:39:19;2.95;;;2.75;;
17259;SDS011;8746;49.230;9.220;2023-06-24T09:41:49;3.55;;;3.25;;
17259;SDS011;8746;49.230;9.220;2023-06-24T09:44:18;3.50;;;3.10;;
17259;SDS011;8746;49.230;9.220;2023-06-24T09:46:46;3.22;;;2.88;;
17259;SDS011;8746;49.230;9.220;2023-06-24T09:49:12;2.95;;;2.65;;
17259;SDS011;8746;49.230;9.220;2023-06-24T09:51:38;4.05;;;2.83;;
17259;SDS011;8746;49.230;9.220;2023-06-24T09:54:08;3.17;;;2.92;;
17259;SDS011;8746;49.230;9.220;2023-06-24T09:56:37;3.10;;;2.90;;
17259;SDS011;8746;49.230;9.220;2023-06-24T09:59:04;3.03;;;2.83;;
17259;SDS011;8746;49.230;9.220;2023-06-24T10:01:35;2.85;;;2.65;;
17259;SDS011;8746;49.230;9.220;2023-06-24T10:04:03;4.20;;;3.10;;
17259;SDS011;8746;49.230;9.220;2023-06-24T10:06:30;3.20;;;2.90;;
17259;SDS011;8746;49.230;9.220;2023-06-24T10:08:57;3.38;;;3.00;;
17259;SDS011;8746;49.230;9.220;2023-06-24T10:11:23;2.90;;;2.70;;
17259;SDS011;8746;49.230;9.220;2023-06-24T10:13:49;3.10;;;2.80;;
17259;SDS011;8746;49.230;9.220;2023-06-24T10:16:15;3.00;;;2.80;;
17259;SDS011;8746;49.230;9.220;2023-06-24T10:18:41;3.30;;;3.00;;
17259;SDS011;8746;49.230;9.220;2023-06-24T10:21:09;2.95;;;2.75;;
17259;SDS011;8746;49.230;9.220;2023-06-24T10:26:25;2.90;;;2.70;;
17259;SDS011;8746;49.230;9.220;2023-06-24T10:37:02;2.78;;;2.58;;
17259;SDS011;8746;49.230;9.220;2023-06-24T10:39:45;3.30;;;2.72;;
17259;SDS011;8746;49.230;9.220;2023-06-24T10:42:25;2.78;;;2.45;;
17259;SDS011;8746;49.230;9.220;2023-06-24T10:44:51;2.63;;;2.40;;
17259;SDS011;8746;49.230;9.220;2023-06-24T10:47:19;2.70;;;2.50;;
17259;SDS011;8746;49.230;9.220;2023-06-24T10:49:46;2.38;;;2.28;;
17259;SDS011;8746;49.230;9.220;2023-06-24T10:52:12;2.33;;;2.22;;
17259;SDS011;8746;49.230;9.220;2023-06-24T10:54:38;2.40;;;2.20;;
17259;SDS011;8746;49.230;9.220;2023-06-24T10:57:05;3.50;;;2.35;;
17259;SDS011;8746;49.230;9.220;2023-06-24T10:59:34;2.60;;;2.40;;
17259;SDS011;8746;49.230;9.220;2023-06-24T11:02:00;2.70;;;2.50;;
17259;SDS011;8746;49.230;9.220;2023-06-24T11:04:26;2.88;;;2.67;;
17259;SDS011;8746;49.230;9.220;2023-06-24T11:06:58;2.75;;;2.40;;
17259;SDS011;8746;49.230;9.220;2023-06-24T11:09:24;3.55;;;2.97;;
17259;SDS011;8746;49.230;9.220;2023-06-24T11:11:49;3.40;;;2.90;;
17259;SDS011;8746;49.230;9.220;2023-06-24T11:14:19;2.50;;;2.30;;
17259;SDS011;8746;49.230;9.220;2023-06-24T11:16:45;2.67;;;2.35;;
17259;SDS011;8746;49.230;9.220;2023-06-24T11:19:11;2.65;;;2.45;;
17259;SDS011;8746;49.230;9.220;2023-06-24T11:21:36;2.85;;;2.40;;
17259;SDS011;8746;49.230;9.220;2023-06-24T11:24:02;2.85;;;2.65;;
17259;SDS011;8746;49.230;9.220;2023-06-24T11:26:28;3.33;;;2.50;;
17259;SDS011;8746;49.230;9.220;2023-06-24T11:28:53;2.42;;;2.25;;
17259;SDS011;8746;49.230;9.220;2023-06-24T11:31:18;2.92;;;2.60;;
17259;SDS011;8746;49.230;9.220;2023-06-24T11:33:50;2.40;;;2.20;;
17259;SDS011;8746;49.230;9.220;2023-06-24T11:36:19;3.13;;;2.70;;
17259;SDS011;8746;49.230;9.220;2023-06-24T11:38:48;3.63;;;2.55;;
17259;SDS011;8746;49.230;9.220;2023-06-24T11:41:13;2.65;;;2.45;;
17259;SDS011;8746;49.230;9.220;2023-06-24T11:43:45;3.63;;;3.33;;
17259;SDS011;8746;49.230;9.220;2023-06-24T11:46:20;3.13;;;2.67;;
17259;SDS011;8746;49.230;9.220;2023-06-24T11:48:46;2.40;;;2.28;;
17259;SDS011;8746;49.230;9.220;2023-06-24T11:51:12;2.58;;;2.38;;
17259;SDS011;8746;49.230;9.220;2023-06-24T11:53:41;2.88;;;2.67;;
17259;SDS011;8746;49.230;9.220;2023-06-24T11:56:08;2.78;;;2.53;;
17259;SDS011;8746;49.230;9.220;2023-06-24T11:58:34;2.58;;;2.38;;
17259;SDS011;8746;49.230;9.220;2023-06-24T12:01:03;2.60;;;2.38;;
17259;SDS011;8746;49.230;9.220;2023-06-24T12:03:28;2.67;;;2.10;;
17259;SDS011;8746;49.230;9.220;2023-06-24T12:05:57;2.40;;;2.20;;
17259;SDS011;8746;49.230;9.220;2023-06-24T12:08:22;2.50;;;2.30;;
17259;SDS011;8746;49.230;9.220;2023-06-24T12:10:48;2.38;;;2.20;;
17259;SDS011;8746;49.230;9.220;2023-06-24T12:13:14;2.67;;;2.47;;
17259;SDS011;8746;49.230;9.220;2023-06-24T12:15:39;2.60;;;2.40;;
17259;SDS011;8746;49.230;9.220;2023-06-24T12:18:05;3.10;;;2.88;;
17259;SDS011;8746;49.230;9.220;2023-06-24T12:20:31;2.47;;;2.28;;
17259;SDS011;8746;49.230;9.220;2023-06-24T12:22:57;2.50;;;2.30;;
17259;SDS011;8746;49.230;9.220;2023-06-24T12:25:23;2.63;;;2.47;;
17259;SDS011;8746;49.230;9.220;2023-06-24T12:27:49;2.60;;;2.40;;
17259;SDS011;8746;49.230;9.220;2023-06-24T12:30:14;3.40;;;2.75;;
17259;SDS011;8746;49.230;9.220;2023-06-24T12:32:41;2.60;;;2.40;;
17259;SDS011;8746;49.230;9.220;2023-06-24T12:35:07;2.95;;;2.70;;
17259;SDS011;8746;49.230;9.220;2023-06-24T12:37:35;2.72;;;2.55;;
17259;SDS011;8746;49.230;9.220;2023-06-24T12:40:04;3.10;;;2.15;;
17259;SDS011;8746;49.230;9.220;2023-06-24T12:42:30;2.63;;;2.42;;
17259;SDS011;8746;49.230;9.220;2023-06-24T12:44:56;2.13;;;2.03;;
17259;SDS011;8746;49.230;9.220;2023-06-24T12:47:21;2.55;;;2.35;;
17259;SDS011;8746;49.230;9.220;2023-06-24T12:49:47;2.53;;;2.40;;
17259;SDS011;8746;49.230;9.220;2023-06-24T12:52:13;2.38;;;2.17;;
17259;SDS011;8746;49.230;9.220;2023-06-24T12:54:38;3.55;;;2.45;;
17259;SDS011;8746;49.230;9.220;2023-06-24T12:57:04;2.80;;;2.60;;
17259;SDS011;8746;49.230;9.220;2023-06-24T12:59:29;2.28;;;2.17;;
17259;SDS011;8746;49.230;9.220;2023-06-24T13:01:55;2.33;;;2.22;;
17259;SDS011;8746;49.230;9.220;2023-06-24T13:04:20;2.63;;;2.42;;
17259;SDS011;8746;49.230;9.220;2023-06-24T13:06:47;2.38;;;2.28;;
17259;SDS011;8746;49.230;9.220;2023-06-24T13:09:14;2.80;;;2.60;;
17259;SDS011;8746;49.230;9.220;2023-06-24T13:11:39;2.63;;;2.42;;
17259;SDS011;8746;49.230;9.220;2023-06-24T13:14:05;2.80;;;2.40;;
17259;SDS011;8746;49.230;9.220;2023-06-24T13:16:30;2.95;;;2.75;;
17259;SDS011;8746;49.230;9.220;2023-06-24T13:18:56;2.80;;;2.60;;
17259;SDS011;8746;49.230;9.220;2023-06-24T13:21:21;2.42;;;2.30;;
17259;SDS011;8746;49.230;9.220;2023-06-24T13:23:47;2.50;;;2.30;;
17259;SDS011;8746;49.230;9.220;2023-06-24T13:26:13;2.67;;;2.47;;
17259;SDS011;8746;49.230;9.220;2023-06-24T13:28:38;2.60;;;2.50;;
17259;SDS011;8746;49.230;9.220;2023-06-24T13:31:04;2.70;;;2.50;;
17259;SDS011;8746;49.230;9.220;2023-06-24T13:33:29;2.70;;;2.50;;
17259;SDS011;8746;49.230;9.220;2023-06-24T13:35:55;2.70;;;2.50;;
17259;SDS011;8746;49.230;9.220;2023-06-24T13:38:21;2.67;;;2.47;;
17259;SDS011;8746;49.230;9.220;2023-06-24T13:40:47;2.55;;;2.35;;
17259;SDS011;8746;49.230;9.220;2023-06-24T13:43:12;2.70;;;2.50;;
17259;SDS011;8746;49.230;9.220;2023-06-24T13:45:37;2.80;;;2.60;;
17259;SDS011;8746;49.230;9.220;2023-06-24T13:48:03;3.95;;;2.70;;
17259;SDS011;8746;49.230;9.220;2023-06-24T13:50:28;2.40;;;2.30;;
17259;SDS011;8746;49.230;9.220;2023-06-24T13:52:54;2.55;;;2.45;;
17259;SDS011;8746;49.230;9.220;2023-06-24T13:55:20;2.60;;;2.38;;
17259;SDS011;8746;49.230;9.220;2023-06-24T13:57:45;2.83;;;2.58;;
17259;SDS011;8746;49.230;9.220;2023-06-24T14:00:11;2.78;;;2.58;;
17259;SDS011;8746;49.230;9.220;2023-06-24T14:02:37;2.78;;;2.58;;
17259;SDS011;8746;49.230;9.220;2023-06-24T14:05:02;2.60;;;2.45;;
17259;SDS011;8746;49.230;9.220;2023-06-24T14:07:28;2.63;;;2.42;;
17259;SDS011;8746;49.230;9.220;2023-06-24T14:09:54;2.50;;;2.40;;
17259;SDS011;8746;49.230;9.220;2023-06-24T14:12:20;3.17;;;2.50;;
17259;SDS011;8746;49.230;9.220;2023-06-24T14:14:45;2.72;;;2.53;;
17259;SDS011;8746;49.230;9.220;2023-06-24T14:17:10;3.15;;;2.90;;
17259;SDS011;8746;49.230;9.220;2023-06-24T14:19:38;3.53;;;2.90;;
17259;SDS011;8746;49.230;9.220;2023-06-24T14:22:04;4.90;;;2.80;;
17259;SDS011;8746;49.230;9.220;2023-06-24T14:24:30;2.63;;;2.42;;
17259;SDS011;8746;49.230;9.220;2023-06-24T14:26:56;2.25;;;2.15;;
17259;SDS011;8746;49.230;9.220;2023-06-24T14:29:21;2.70;;;2.50;;
17259;SDS011;8746;49.230;9.220;2023-06-24T14:31:47;2.75;;;2.55;;
17259;SDS011;8746;49.230;9.220;2023-06-24T14:34:12;2.92;;;2.72;;
17259;SDS011;8746;49.230;9.220;2023-06-24T14:36:38;2.97;;;2.67;;
17259;SDS011;8746;49.230;9.220;2023-06-24T14:39:03;2.65;;;2.53;;
17259;SDS011;8746;49.230;9.220;2023-06-24T14:41:29;3.05;;;2.75;;
17259;SDS011;8746;49.230;9.220;2023-06-24T14:43:54;2.83;;;2.58;;
17259;SDS011;8746;49.230;9.220;2023-06-24T14:46:19;2.53;;;2.40;;
17259;SDS011;8746;49.230;9.220;2023-06-24T14:48:45;2.90;;;2.70;;
17259;SDS011;8746;49.230;9.220;2023-06-24T14:51:10;2.78;;;2.58;;
17259;SDS011;8746;49.230;9.220;2023-06-24T14:53:35;2.88;;;2.67;;
17259;SDS011;8746;49.230;9.220;2023-06-24T14:56:01;2.88;;;2.67;;
17259;SDS011;8746;49.230;9.220;2023-06-24T14:58:26;3.08;;;2.67;;
17259;SDS011;8746;49.230;9.220;2023-06-24T15:00:51;2.97;;;2.75;;
17259;SDS011;8746;49.230;9.220;2023-06-24T15:03:17;2.85;;;2.60;;
17259;SDS011;8746;49.230;9.220;2023-06-24T15:05:42;2.20;;;2.10;;
17259;SDS011;8746;49.230;9.220;2023-06-24T15:08:07;3.35;;;2.97;;
17259;SDS011;8746;49.230;9.220;2023-06-24T15:10:33;3.22;;;3.03;;
17259;SDS011;8746;49.230;9.220;2023-06-24T15:12:58;3.00;;;2.80;;
17259;SDS011;8746;49.230;9.220;2023-06-24T15:15:23;2.90;;;2.70;;